createdAt,value
2023-09-24T00:02:07.339Z,16.10
2023-09-24T00:04:38.183Z,16.20
2023-09-24T00:07:09.154Z,16.40
2023-09-24T00:09:40.218Z,16.60
2023-09-24T00:12:10.955Z,16.80
2023-09-24T00:14:43.744Z,17.00
2023-09-24T00:17:14.739Z,17.00
2023-09-24T00:19:45.415Z,16.90
2023-09-24T00:22:17.211Z,17.10
2023-09-24T00:24:50.792Z,17.20
2023-09-24T00:27:21.477Z,17.30
2023-09-24T00:29:52.374Z,17.50
2023-09-24T00:32:24.319Z,17.50
2023-09-24T00:34:55.029Z,17.60
2023-09-24T00:37:27.419Z,17.70
2023-09-24T00:39:58.141Z,17.90
2023-09-24T00:42:32.209Z,18.00
2023-09-24T00:45:03.135Z,18.10
2023-09-24T00:47:35.708Z,18.00
2023-09-24T00:50:06.676Z,18.10
2023-09-24T00:52:38.303Z,18.20
2023-09-24T00:55:12.043Z,18.30
2023-09-24T00:57:43.914Z,18.50
2023-09-24T01:00:21.295Z,18.50
2023-09-24T01:02:54.114Z,18.60
2023-09-24T01:05:25.568Z,18.60
2023-09-24T01:07:57.479Z,18.50
2023-09-24T01:10:29.267Z,18.60
2023-09-24T01:13:05.428Z,18.70
2023-09-24T01:15:36.622Z,18.90
2023-09-24T01:18:07.989Z,19.00
2023-09-24T01:20:39.778Z,19.00
2023-09-24T01:23:19.563Z,19.10
2023-09-24T01:25:51.196Z,19.20
2023-09-24T01:28:22.085Z,19.30
2023-09-24T01:30:52.773Z,19.30
2023-09-24T01:33:26.553Z,19.20
2023-09-24T01:35:57.458Z,19.30
2023-09-24T01:38:29.098Z,19.50
2023-09-24T01:41:01.204Z,19.50
2023-09-24T01:43:32.063Z,19.50
2023-09-24T01:46:03.093Z,19.50
2023-09-24T01:48:33.830Z,19.60
2023-09-24T01:51:10.651Z,19.60
2023-09-24T01:53:42.005Z,19.70
2023-09-24T01:56:13.959Z,19.90
2023-09-24T01:58:45.369Z,20.00
2023-09-24T02:01:16.157Z,20.20
2023-09-24T02:03:49.695Z,20.30
2023-09-24T02:06:21.901Z,20.50
2023-09-24T02:08:52.726Z,20.60
2023-09-24T02:11:25.010Z,20.80
2023-09-24T02:13:55.870Z,20.90
2023-09-24T02:16:26.851Z,21.00
2023-09-24T02:18:57.865Z,21.10
2023-09-24T02:21:28.658Z,21.20
2023-09-24T02:23:59.383Z,21.20
2023-09-24T02:26:30.157Z,21.20
2023-09-24T02:29:01.557Z,21.30
2023-09-24T02:31:34.293Z,21.40
2023-09-24T02:34:05.124Z,21.40
2023-09-24T02:36:36.875Z,21.50
2023-09-24T02:39:07.810Z,21.50
2023-09-24T02:41:38.598Z,21.60
2023-09-24T02:44:09.984Z,21.50
2023-09-24T02:46:40.794Z,21.50
2023-09-24T02:49:12.443Z,21.40
2023-09-24T02:51:43.435Z,21.50
2023-09-24T02:54:14.226Z,21.50
2023-09-24T02:56:45.001Z,21.50
2023-09-24T02:59:15.955Z,21.50
2023-09-24T03:01:51.794Z,21.60
2023-09-24T03:04:23.204Z,21.60
2023-09-24T03:06:55.997Z,21.60
2023-09-24T03:09:27.559Z,21.60
2023-09-24T03:11:58.115Z,21.60
2023-09-24T03:14:29.286Z,21.40
2023-09-24T03:17:00.053Z,21.30
2023-09-24T03:19:33.164Z,21.30
2023-09-24T03:22:05.111Z,21.30
2023-09-24T03:24:36.042Z,21.30
2023-09-24T03:27:07.072Z,21.40
2023-09-24T03:29:39.019Z,21.50
2023-09-24T03:32:09.914Z,21.60
2023-09-24T03:34:41.928Z,21.60
2023-09-24T03:37:12.658Z,21.60
2023-09-24T03:39:43.534Z,21.60
2023-09-24T03:42:14.372Z,21.60
2023-09-24T03:44:45.037Z,21.60
2023-09-24T03:47:16.430Z,21.30
2023-09-24T03:49:47.103Z,21.20
2023-09-24T03:52:17.853Z,21.20
2023-09-24T03:54:48.564Z,21.20
2023-09-24T03:57:19.374Z,21.20
2023-09-24T03:59:55.860Z,21.20
2023-09-24T04:02:31.568Z,21.20
2023-09-24T04:05:03.950Z,21.30
2023-09-24T04:07:35.512Z,21.30
2023-09-24T04:10:06.306Z,21.20
2023-09-24T04:12:38.155Z,21.20
2023-09-24T04:15:11.533Z,21.10
2023-09-24T04:17:47.673Z,21.00
2023-09-24T04:20:23.045Z,20.90
2023-09-24T04:22:54.121Z,20.90
2023-09-24T04:25:26.140Z,20.90
2023-09-24T04:27:58.825Z,20.90
2023-09-24T04:30:29.702Z,21.00
2023-09-24T04:33:01.427Z,21.00
2023-09-24T04:35:33.105Z,21.10
2023-09-24T04:38:04.096Z,21.10
2023-09-24T04:40:37.201Z,21.00
2023-09-24T04:43:10.125Z,21.00
2023-09-24T04:45:43.800Z,21.00
2023-09-24T04:48:15.703Z,20.90
2023-09-24T04:50:48.068Z,20.90
2023-09-24T04:53:18.789Z,20.90
2023-09-24T04:55:49.859Z,20.90
2023-09-24T04:58:20.658Z,20.90
2023-09-24T05:00:51.437Z,20.90
2023-09-24T05:03:22.301Z,20.90
2023-09-24T05:05:53.493Z,20.90
2023-09-24T05:08:33.441Z,20.90
2023-09-24T05:11:07.838Z,20.90
2023-09-24T05:13:38.609Z,20.70
2023-09-24T05:16:09.689Z,20.50
2023-09-24T05:18:40.989Z,20.50
2023-09-24T05:21:20.074Z,20.50
2023-09-24T05:23:51.357Z,20.60
2023-09-24T05:26:22.282Z,20.60
2023-09-24T05:28:53.032Z,20.60
2023-09-24T05:31:25.040Z,20.60
2023-09-24T05:33:55.881Z,20.60
2023-09-24T05:36:26.693Z,20.70
2023-09-24T05:38:58.291Z,20.70
2023-09-24T05:41:31.902Z,20.70
2023-09-24T05:44:08.061Z,20.70
2023-09-24T05:46:38.793Z,20.70
2023-09-24T05:49:10.436Z,20.60
2023-09-24T05:51:41.310Z,20.50
2023-09-24T05:54:13.861Z,20.50
2023-09-24T05:56:45.125Z,20.30
2023-09-24T05:59:18.492Z,20.20
2023-09-24T06:01:51.274Z,20.20
2023-09-24T06:04:22.171Z,20.10
2023-09-24T06:06:54.928Z,20.10
2023-09-24T06:09:25.692Z,20.00
2023-09-24T06:11:56.547Z,20.00
2023-09-24T06:14:28.585Z,20.00
2023-09-24T06:17:01.101Z,20.00
2023-09-24T06:19:31.928Z,20.00
2023-09-24T06:22:03.516Z,20.00
2023-09-24T06:24:34.296Z,20.00
2023-09-24T06:27:05.008Z,20.00
2023-09-24T06:29:39.186Z,19.90
2023-09-24T06:32:09.921Z,19.90
2023-09-24T06:34:41.303Z,19.80
2023-09-24T06:37:12.476Z,19.80
2023-09-24T06:39:46.490Z,19.80
2023-09-24T06:42:19.354Z,19.80
2023-09-24T06:44:50.111Z,19.70
2023-09-24T06:47:21.376Z,19.70
2023-09-24T06:49:53.296Z,19.70
2023-09-24T06:52:23.939Z,19.60
2023-09-24T06:54:54.614Z,19.60
2023-09-24T06:57:25.280Z,19.50
2023-09-24T06:59:56.350Z,19.50
2023-09-24T07:02:27.114Z,19.40
2023-09-24T07:04:58.027Z,19.30
2023-09-24T07:07:31.143Z,19.30
2023-09-24T07:10:02.667Z,19.30
2023-09-24T07:12:33.545Z,19.20
2023-09-24T07:15:03.866Z,19.20
2023-09-24T07:17:34.749Z,19.20
2023-09-24T07:20:07.829Z,19.10
2023-09-24T07:22:40.575Z,19.10
2023-09-24T07:25:11.697Z,18.90
2023-09-24T07:27:43.956Z,18.90
2023-09-24T07:30:15.877Z,18.80
2023-09-24T07:32:46.685Z,18.80
2023-09-24T07:35:18.474Z,18.70
2023-09-24T07:37:49.159Z,18.60
2023-09-24T07:40:22.461Z,18.60
2023-09-24T07:42:53.183Z,18.50
2023-09-24T07:45:24.060Z,18.30
2023-09-24T07:47:55.797Z,18.20
2023-09-24T07:50:26.629Z,18.10
2023-09-24T07:52:58.522Z,18.00
2023-09-24T07:55:29.283Z,17.80
2023-09-24T07:58:01.668Z,17.70
2023-09-24T08:00:33.999Z,17.60
2023-09-24T08:03:05.626Z,17.50
2023-09-24T08:05:36.502Z,17.40
2023-09-24T08:08:07.638Z,17.30
2023-09-24T08:10:38.626Z,17.10
2023-09-24T08:13:10.987Z,17.00
2023-09-24T08:15:41.460Z,16.90
2023-09-24T08:18:14.576Z,16.70
2023-09-24T08:20:46.104Z,16.60
2023-09-24T08:23:17.802Z,16.40
2023-09-24T08:25:48.678Z,16.30
2023-09-24T08:28:20.376Z,16.20
2023-09-24T08:30:52.509Z,16.20
2023-09-24T08:33:26.405Z,16.00
2023-09-24T08:35:57.435Z,15.90
2023-09-24T08:38:28.324Z,15.80
2023-09-24T08:40:59.090Z,15.80
2023-09-24T08:43:33.478Z,15.60
2023-09-24T08:46:04.551Z,15.50
2023-09-24T08:48:36.447Z,15.50
2023-09-24T08:51:07.417Z,15.40
2023-09-24T08:53:39.711Z,15.30
2023-09-24T08:56:13.312Z,15.20
2023-09-24T08:58:47.516Z,15.10
2023-09-24T09:01:18.730Z,15.00
2023-09-24T09:03:50.925Z,15.00
2023-09-24T09:06:36.534Z,14.90
2023-09-24T09:09:08.384Z,14.70
2023-09-24T09:11:49.691Z,14.60
2023-09-24T09:14:37.401Z,14.50
2023-09-24T09:17:08.801Z,14.40
2023-09-24T09:19:59.867Z,14.30
2023-09-24T09:22:31.773Z,14.20
2023-09-24T09:25:10.238Z,14.10
2023-09-24T09:27:46.769Z,14.00
2023-09-24T09:30:19.018Z,13.90
2023-09-24T09:32:51.691Z,13.80
2023-09-24T09:35:22.919Z,13.80
2023-09-24T09:37:57.807Z,13.70
2023-09-24T09:40:28.758Z,13.60
2023-09-24T09:43:00.881Z,13.50
2023-09-24T09:45:31.695Z,13.40
2023-09-24T09:48:09.528Z,13.30
2023-09-24T09:50:47.338Z,13.30
2023-09-24T09:53:22.560Z,13.20
2023-09-24T09:55:56.335Z,13.10
2023-09-24T09:58:28.086Z,13.00
2023-09-24T10:01:02.793Z,13.00
2023-09-24T10:03:38.496Z,12.90
2023-09-24T10:06:13.570Z,12.80
2023-09-24T10:08:57.372Z,12.70
2023-09-24T10:11:37.178Z,12.60
2023-09-24T10:14:09.255Z,12.60
2023-09-24T10:19:59.062Z,12.40
2023-09-24T10:22:36.168Z,12.30
2023-09-24T10:25:36.681Z,12.30
2023-09-24T10:28:11.941Z,12.20
2023-09-24T10:31:08.462Z,12.20
2023-09-24T10:34:00.706Z,12.10
2023-09-24T10:36:35.669Z,12.00
2023-09-24T10:39:15.003Z,11.90
2023-09-24T10:42:13.025Z,11.90
2023-09-24T10:45:11.762Z,11.80
2023-09-24T10:48:06.929Z,11.80
2023-09-24T10:50:41.221Z,11.70
2023-09-24T10:53:12.591Z,11.60
2023-09-24T10:55:51.443Z,11.60
2023-09-24T10:58:33.028Z,11.50
2023-09-24T11:01:08.952Z,11.50
2023-09-24T11:03:41.429Z,11.40
2023-09-24T11:06:12.479Z,11.30
2023-09-24T11:08:45.340Z,11.20
2023-09-24T11:11:19.414Z,11.10
2023-09-24T11:13:50.127Z,11.10
2023-09-24T11:16:22.706Z,11.00
2023-09-24T11:18:54.406Z,11.00
2023-09-24T11:21:37.768Z,10.90
2023-09-24T11:24:25.816Z,10.90
2023-09-24T11:27:02.610Z,10.80
2023-09-24T11:29:32.904Z,10.80
2023-09-24T11:32:04.296Z,10.70
2023-09-24T11:34:36.165Z,10.70
2023-09-24T11:37:08.791Z,10.70
2023-09-24T11:39:48.486Z,10.70
2023-09-24T11:42:22.702Z,10.70
2023-09-24T11:44:53.732Z,10.60
2023-09-24T11:47:25.932Z,10.60
2023-09-24T11:49:56.659Z,10.50
2023-09-24T11:52:27.473Z,10.50
2023-09-24T11:54:59.348Z,10.50
2023-09-24T11:57:31.225Z,10.40
2023-09-24T12:00:02.129Z,10.40
2023-09-24T12:02:42.534Z,10.30
2023-09-24T12:05:26.725Z,10.30
2023-09-24T12:08:04.995Z,10.30
2023-09-24T12:10:41.764Z,10.20
2023-09-24T12:13:16.752Z,10.20
2023-09-24T12:15:49.071Z,10.20
2023-09-24T12:18:20.133Z,10.30
2023-09-24T12:20:51.375Z,10.20
2023-09-24T12:23:24.859Z,10.20
2023-09-24T12:25:55.630Z,10.10
2023-09-24T12:28:30.271Z,10.00
2023-09-24T12:31:01.263Z,10.00
2023-09-24T12:33:34.811Z,10.00
2023-09-24T12:36:06.888Z,10.00
2023-09-24T12:38:39.341Z,10.00
2023-09-24T12:41:10.041Z,9.90
2023-09-24T12:43:41.571Z,9.80
2023-09-24T12:46:12.187Z,9.80
2023-09-24T12:48:43.101Z,9.80
2023-09-24T12:51:14.132Z,9.70
2023-09-24T12:53:45.469Z,9.70
2023-09-24T12:56:16.184Z,9.60
2023-09-24T12:58:50.046Z,9.60
2023-09-24T13:01:22.887Z,9.50
2023-09-24T13:03:55.742Z,9.50
2023-09-24T13:06:26.717Z,9.50
2023-09-24T13:08:57.806Z,9.40
2023-09-24T13:11:30.829Z,9.40
2023-09-24T13:14:03.134Z,9.40
2023-09-24T13:16:34.605Z,9.30
2023-09-24T13:19:05.448Z,9.30
2023-09-24T13:21:37.016Z,9.30
2023-09-24T13:24:09.254Z,9.30
2023-09-24T13:26:42.441Z,9.30
2023-09-24T13:29:15.193Z,9.20
2023-09-24T13:31:49.914Z,9.20
2023-09-24T13:34:22.754Z,9.10
2023-09-24T13:36:53.462Z,9.10
2023-09-24T13:39:24.308Z,9.00
2023-09-24T13:41:55.709Z,9.00
2023-09-24T13:44:26.984Z,9.00
2023-09-24T13:46:57.988Z,8.90
2023-09-24T13:49:29.445Z,8.80
2023-09-24T13:52:00.257Z,8.80
2023-09-24T13:54:32.890Z,8.70
2023-09-24T13:57:04.149Z,8.70
2023-09-24T13:59:35.178Z,8.70
2023-09-24T14:02:08.632Z,8.60
2023-09-24T14:04:40.504Z,8.60
2023-09-24T14:07:14.893Z,8.60
2023-09-24T14:10:03.362Z,8.50
2023-09-24T14:12:34.079Z,8.50
2023-09-24T14:15:07.905Z,8.40
2023-09-24T14:17:43.095Z,8.40
2023-09-24T14:20:14.977Z,8.40
2023-09-24T14:22:45.662Z,8.40
2023-09-24T14:25:16.459Z,8.30
2023-09-24T14:27:48.450Z,8.30
2023-09-24T14:30:19.439Z,8.30
2023-09-24T14:32:50.286Z,8.20
2023-09-24T14:35:21.266Z,8.20
2023-09-24T14:37:52.714Z,8.20
2023-09-24T14:40:26.072Z,8.10
2023-09-24T14:42:56.405Z,8.10
2023-09-24T14:45:27.169Z,8.10
2023-09-24T14:47:57.958Z,8.00
2023-09-24T14:50:29.206Z,8.00
2023-09-24T14:52:59.905Z,8.00
2023-09-24T14:55:30.701Z,8.00
2023-09-24T14:58:02.278Z,7.90
2023-09-24T15:00:34.177Z,7.80
2023-09-24T15:03:05.125Z,7.80
2023-09-24T15:05:38.238Z,7.80
2023-09-24T15:08:12.394Z,7.70
2023-09-24T15:10:44.244Z,7.70
2023-09-24T15:13:15.874Z,7.60
2023-09-24T15:15:50.883Z,7.60
2023-09-24T15:18:23.029Z,7.60
2023-09-24T15:20:55.182Z,7.50
2023-09-24T15:23:30.823Z,7.50
2023-09-24T15:26:02.091Z,7.40
2023-09-24T15:28:32.902Z,7.40
2023-09-24T15:31:03.705Z,7.40
2023-09-24T15:33:34.594Z,7.40
2023-09-24T15:36:07.633Z,7.30
2023-09-24T15:38:39.647Z,7.40
2023-09-24T15:41:10.586Z,7.30
2023-09-24T15:43:41.242Z,7.30
2023-09-24T15:46:21.606Z,7.20
2023-09-24T15:48:52.416Z,7.20
2023-09-24T15:51:24.621Z,7.20
2023-09-24T15:53:57.391Z,7.20
2023-09-24T15:56:28.203Z,7.20
2023-09-24T15:59:00.236Z,7.10
2023-09-24T16:01:33.012Z,7.10
2023-09-24T16:04:05.272Z,7.20
2023-09-24T16:06:36.201Z,7.20
2023-09-24T16:09:09.033Z,7.20
2023-09-24T16:11:40.023Z,7.20
2023-09-24T16:14:10.763Z,7.20
2023-09-24T16:16:41.452Z,7.10
2023-09-24T16:19:13.693Z,7.10
2023-09-24T16:21:44.520Z,7.10
2023-09-24T16:24:17.424Z,7.10
2023-09-24T16:26:48.354Z,7.10
2023-09-24T16:29:22.185Z,7.10
2023-09-24T16:31:54.889Z,7.10
2023-09-24T16:34:27.628Z,7.00
2023-09-24T16:37:04.088Z,7.00
2023-09-24T16:39:34.833Z,6.90
2023-09-24T16:42:23.998Z,6.90
2023-09-24T16:45:13.619Z,6.80
2023-09-24T16:48:04.702Z,6.80
2023-09-24T16:53:25.242Z,6.70
2023-09-24T16:55:59.063Z,6.60
2023-09-24T16:58:29.770Z,6.60
2023-09-24T17:01:01.980Z,6.60
2023-09-24T17:03:34.518Z,6.50
2023-09-24T17:06:05.330Z,6.50
2023-09-24T17:08:36.065Z,6.50
2023-09-24T17:11:25.326Z,6.50
2023-09-24T17:14:14.754Z,6.40
2023-09-24T17:17:04.341Z,6.40
2023-09-24T17:19:52.278Z,6.40
2023-09-24T17:22:22.894Z,6.30
2023-09-24T17:24:53.930Z,6.30
2023-09-24T17:27:25.545Z,6.30
2023-09-24T17:29:55.911Z,6.30
2023-09-24T17:32:26.702Z,6.20
2023-09-24T17:34:57.707Z,6.20
2023-09-24T17:37:28.788Z,6.20
2023-09-24T17:39:59.154Z,6.20
2023-09-24T17:42:48.094Z,6.10
2023-09-24T17:45:37.307Z,6.10
2023-09-24T17:48:26.703Z,6.20
2023-09-24T17:51:11.884Z,6.10
2023-09-24T17:53:44.748Z,6.10
2023-09-24T17:56:16.107Z,6.10
2023-09-24T17:58:46.962Z,6.10
2023-09-24T18:01:18.694Z,6.00
2023-09-24T18:03:50.596Z,6.00
2023-09-24T18:06:23.680Z,6.00
2023-09-24T18:08:54.441Z,6.00
2023-09-24T18:11:25.017Z,6.00
2023-09-24T18:13:57.666Z,6.00
2023-09-24T18:16:28.516Z,5.90
2023-09-24T18:18:59.057Z,5.90
2023-09-24T18:21:29.610Z,5.90
2023-09-24T18:24:00.174Z,5.90
2023-09-24T18:26:30.560Z,5.90
2023-09-24T18:29:00.927Z,5.90
2023-09-24T18:31:31.605Z,5.80
2023-09-24T18:34:02.597Z,5.80
2023-09-24T18:36:33.033Z,5.70
2023-09-24T18:39:04.882Z,5.70
2023-09-24T18:41:58.395Z,5.70
2023-09-24T18:44:47.240Z,5.60
2023-09-24T18:47:37.330Z,5.60
2023-09-24T18:50:10.631Z,5.60
2023-09-24T18:52:42.828Z,5.60
2023-09-24T18:55:14.658Z,5.60
2023-09-24T18:57:47.444Z,5.60
2023-09-24T19:00:18.505Z,5.50
2023-09-24T19:02:53.070Z,5.50
2023-09-24T19:05:28.161Z,5.40
2023-09-24T19:08:00.510Z,5.40
2023-09-24T19:10:32.463Z,5.40
2023-09-24T19:13:03.252Z,5.40
2023-09-24T19:15:37.243Z,5.40
2023-09-24T19:18:09.679Z,5.40
2023-09-24T19:20:48.834Z,5.40
2023-09-24T19:23:31.727Z,5.30
2023-09-24T19:26:14.582Z,5.30
2023-09-24T19:28:46.352Z,5.30
2023-09-24T19:31:18.771Z,5.30
2023-09-24T19:33:52.162Z,5.20
2023-09-24T19:36:25.909Z,5.20
2023-09-24T19:38:56.728Z,5.20
2023-09-24T19:41:28.710Z,5.20
2023-09-24T19:44:00.576Z,5.20
2023-09-24T19:46:32.682Z,5.10
2023-09-24T19:49:06.035Z,5.10
2023-09-24T19:51:45.126Z,5.10
2023-09-24T19:54:25.558Z,5.10
2023-09-24T19:56:56.082Z,5.10
2023-09-24T19:59:26.872Z,5.10
2023-09-24T20:02:04.205Z,5.10
2023-09-24T20:04:36.918Z,5.10
2023-09-24T20:07:28.667Z,5.10
2023-09-24T20:10:00.835Z,5.10
2023-09-24T20:12:33.058Z,5.10
2023-09-24T20:15:09.614Z,5.20
2023-09-24T20:17:41.612Z,5.20
2023-09-24T20:20:17.526Z,5.20
2023-09-24T20:22:50.318Z,5.30
2023-09-24T20:25:46.937Z,5.30
2023-09-24T20:28:19.417Z,5.40
2023-09-24T20:30:53.431Z,5.50
2023-09-24T20:33:31.854Z,5.50
2023-09-24T20:36:07.497Z,5.60
2023-09-24T20:38:39.458Z,5.70
2023-09-24T20:41:16.750Z,5.80
2023-09-24T20:43:47.764Z,5.90
2023-09-24T20:46:20.089Z,6.00
2023-09-24T20:48:51.080Z,6.20
2023-09-24T20:51:22.083Z,6.30
2023-09-24T20:53:52.850Z,6.40
2023-09-24T20:56:24.880Z,6.60
2023-09-24T20:58:59.628Z,6.80
2023-09-24T21:01:30.388Z,7.00
2023-09-24T21:04:01.158Z,7.20
2023-09-24T21:06:31.916Z,7.50
2023-09-24T21:09:02.652Z,7.70
2023-09-24T21:11:33.890Z,7.80
2023-09-24T21:14:04.862Z,8.00
2023-09-24T21:16:35.783Z,8.20
2023-09-24T21:19:08.231Z,8.30
2023-09-24T21:21:41.012Z,8.40
2023-09-24T21:24:12.247Z,8.50
2023-09-24T21:26:42.989Z,8.70
2023-09-24T21:29:14.639Z,8.80
2023-09-24T21:31:45.447Z,8.90
2023-09-24T21:34:16.340Z,9.00
2023-09-24T21:36:47.128Z,9.10
2023-09-24T21:39:19.948Z,9.10
2023-09-24T21:41:50.672Z,9.20
2023-09-24T21:44:21.295Z,9.30
2023-09-24T21:46:53.647Z,9.30
2023-09-24T21:49:24.324Z,9.40
2023-09-24T21:51:55.995Z,9.40
2023-09-24T21:54:27.664Z,9.50
2023-09-24T21:56:58.602Z,9.60
2023-09-24T21:59:29.326Z,9.60
2023-09-24T22:02:00.550Z,9.70
2023-09-24T22:04:31.466Z,9.80
2023-09-24T22:07:02.389Z,9.90
2023-09-24T22:09:33.240Z,10.00
2023-09-24T22:12:04.064Z,10.20
2023-09-24T22:14:34.815Z,10.40
2023-09-24T22:17:08.138Z,10.50
2023-09-24T22:19:38.978Z,10.70
2023-09-24T22:22:09.761Z,10.80
2023-09-24T22:24:42.577Z,11.00
2023-09-24T22:27:15.319Z,11.30
2023-09-24T22:29:46.293Z,11.50
2023-09-24T22:32:17.085Z,11.70
2023-09-24T22:34:47.748Z,11.90
2023-09-24T22:37:18.556Z,12.10
2023-09-24T22:39:50.230Z,12.30
2023-09-24T22:45:20.833Z,12.70
2023-09-24T22:47:51.745Z,12.90
2023-09-24T22:50:24.789Z,13.10
2023-09-24T22:52:56.025Z,13.20
2023-09-24T22:55:26.685Z,13.30
2023-09-24T22:57:58.195Z,13.50
2023-09-24T23:00:32.467Z,13.70
2023-09-24T23:03:04.481Z,13.80
2023-09-24T23:05:36.905Z,14.00
2023-09-24T23:08:08.609Z,14.30
2023-09-24T23:10:44.188Z,14.40
2023-09-24T23:13:17.054Z,14.70
2023-09-24T23:15:49.837Z,14.90
2023-09-24T23:18:21.379Z,15.10
2023-09-24T23:20:54.072Z,15.30
2023-09-24T23:23:24.783Z,15.50
2023-09-24T23:25:57.553Z,15.70
2023-09-24T23:28:29.625Z,15.80
2023-09-24T23:31:02.199Z,16.00
2023-09-24T23:33:32.961Z,16.20
2023-09-24T23:36:03.694Z,16.40
2023-09-24T23:38:35.524Z,16.50
2023-09-24T23:41:06.312Z,16.70
2023-09-24T23:43:37.850Z,16.80
2023-09-24T23:46:08.788Z,17.10
2023-09-24T23:48:39.518Z,17.40
2023-09-24T23:51:10.304Z,17.60
2023-09-24T23:53:41.426Z,17.90
2023-09-24T23:56:12.679Z,18.20
2023-09-24T23:58:43.781Z,18.30
